createdAt,value
2019-05-21T00:00:01.231Z,16.77
2019-05-21T00:02:30.507Z,17.83
2019-05-21T00:04:59.747Z,21.33
2019-05-21T00:07:29.353Z,19.03
2019-05-21T00:09:58.642Z,18.23
2019-05-21T00:12:27.875Z,15.53
2019-05-21T00:14:57.113Z,14.77
2019-05-21T00:17:26.295Z,15.00
2019-05-21T00:19:55.452Z,14.23
2019-05-21T00:22:24.659Z,16.07
2019-05-21T00:24:53.964Z,13.13
2019-05-21T00:27:23.234Z,16.90
2019-05-21T00:30:28.530Z,12.70
2019-05-21T00:33:33.736Z,11.13
2019-05-21T00:36:40.947Z,10.97
2019-05-21T00:39:45.898Z,10.97
2019-05-21T00:42:19.376Z,9.03
2019-05-21T00:44:48.538Z,9.37
2019-05-21T00:47:17.872Z,8.43
2019-05-21T00:49:47.028Z,7.03
2019-05-21T00:52:16.320Z,9.13
2019-05-21T00:54:45.528Z,6.70
2019-05-21T00:57:14.821Z,6.40
2019-05-21T00:59:44.018Z,7.30
2019-05-21T01:02:13.351Z,7.13
2019-05-21T01:04:42.607Z,6.17
2019-05-21T01:07:11.792Z,5.93
2019-05-21T01:09:40.943Z,5.60
2019-05-21T01:12:10.119Z,5.87
2019-05-21T01:14:39.284Z,7.63
2019-05-21T01:17:08.544Z,5.93
2019-05-21T01:19:37.754Z,5.97
2019-05-21T01:22:07.006Z,5.73
2019-05-21T01:24:36.166Z,6.77
2019-05-21T01:27:05.326Z,5.63
2019-05-21T01:29:34.576Z,6.10
2019-05-21T01:32:03.963Z,6.47
2019-05-21T01:34:33.605Z,7.17
2019-05-21T01:37:03.193Z,6.27
2019-05-21T01:39:32.449Z,6.30
2019-05-21T01:42:01.600Z,6.77
2019-05-21T01:44:30.839Z,7.47
2019-05-21T01:47:00.067Z,6.67
2019-05-21T01:49:29.288Z,6.70
2019-05-21T01:51:58.481Z,7.00
2019-05-21T01:54:27.703Z,7.27
2019-05-21T01:56:56.859Z,7.97
2019-05-21T01:59:26.035Z,7.27
2019-05-21T02:01:55.267Z,7.40
2019-05-21T02:04:24.558Z,7.13
2019-05-21T02:06:53.842Z,6.93
2019-05-21T02:09:23.035Z,5.57
2019-05-21T02:11:52.267Z,4.97
2019-05-21T02:14:21.442Z,4.63
2019-05-21T02:16:50.609Z,4.20
2019-05-21T02:19:19.819Z,4.37
2019-05-21T02:21:49.011Z,4.03
2019-05-21T02:24:18.195Z,3.63
2019-05-21T02:26:47.351Z,3.93
2019-05-21T02:29:16.535Z,3.33
2019-05-21T02:31:45.761Z,3.43
2019-05-21T02:34:15.058Z,3.87
2019-05-21T02:36:44.284Z,5.97
2019-05-21T02:39:13.465Z,4.30
2019-05-21T02:41:42.620Z,2.77
2019-05-21T02:44:11.882Z,2.93
2019-05-21T02:46:41.109Z,2.80
2019-05-21T02:49:10.300Z,2.80
2019-05-21T02:51:39.627Z,2.70
2019-05-21T02:54:08.876Z,2.43
2019-05-21T02:56:38.023Z,2.50
2019-05-21T02:59:07.248Z,3.47
2019-05-21T03:01:55.463Z,2.97
2019-05-21T03:04:24.843Z,3.00
2019-05-21T03:06:56.541Z,2.20
2019-05-21T03:09:25.791Z,2.23
2019-05-21T03:11:54.942Z,2.50
2019-05-21T03:14:24.288Z,2.20
2019-05-21T03:16:53.444Z,2.00
2019-05-21T03:19:22.599Z,2.30
2019-05-21T03:21:51.925Z,2.07
2019-05-21T03:24:21.158Z,2.00
2019-05-21T03:26:50.480Z,2.07
2019-05-21T03:29:19.170Z,2.50
2019-05-21T03:31:48.465Z,2.00
2019-05-21T03:34:17.625Z,2.60
2019-05-21T03:36:46.880Z,2.10
2019-05-21T03:39:19.302Z,2.33
2019-05-21T03:41:47.038Z,2.37
2019-05-21T03:44:16.303Z,2.60
2019-05-21T03:46:45.476Z,2.20
2019-05-21T03:49:14.616Z,2.20
2019-05-21T03:51:43.791Z,2.27
2019-05-21T03:54:13.002Z,2.70
2019-05-21T03:56:42.249Z,2.30
2019-05-21T03:59:11.488Z,2.40
2019-05-21T04:01:40.739Z,2.17
2019-05-21T04:04:09.961Z,2.83
2019-05-21T04:06:51.200Z,3.00
2019-05-21T04:09:10.083Z,2.40
2019-05-21T04:11:39.335Z,2.87
2019-05-21T04:14:08.566Z,2.90
2019-05-21T04:16:59.248Z,3.60
2019-05-21T04:19:32.482Z,4.30
2019-05-21T04:22:01.826Z,3.40
2019-05-21T04:24:31.058Z,3.40
2019-05-21T04:27:00.338Z,3.53
2019-05-21T04:29:29.590Z,4.60
2019-05-21T04:31:58.810Z,4.07
2019-05-21T04:34:28.041Z,4.80
2019-05-21T04:37:09.985Z,4.30
2019-05-21T04:39:28.091Z,5.67
2019-05-21T04:41:57.364Z,6.37
2019-05-21T04:44:26.518Z,4.73
2019-05-21T04:46:55.696Z,4.33
2019-05-21T04:49:24.930Z,3.90
2019-05-21T04:51:54.151Z,4.20
2019-05-21T04:54:23.330Z,4.13
2019-05-21T04:56:52.557Z,4.37
2019-05-21T04:59:21.930Z,3.70
2019-05-21T05:01:51.090Z,3.73
2019-05-21T05:04:21.630Z,3.60
2019-05-21T05:06:51.308Z,3.50
2019-05-21T05:09:20.571Z,3.23
2019-05-21T05:11:49.802Z,3.23
2019-05-21T05:14:18.981Z,3.17
2019-05-21T05:16:48.284Z,3.07
2019-05-21T05:19:17.536Z,3.20
2019-05-21T05:21:46.725Z,4.03
2019-05-21T05:24:15.940Z,3.07
2019-05-21T05:26:45.223Z,3.00
2019-05-21T05:29:14.476Z,3.37
2019-05-21T05:31:43.728Z,3.30
2019-05-21T05:34:12.939Z,3.07
2019-05-21T05:36:42.086Z,3.27
2019-05-21T05:39:11.266Z,3.23
2019-05-21T05:41:40.495Z,3.50
2019-05-21T05:44:09.892Z,3.37
2019-05-21T05:46:39.154Z,3.00
2019-05-21T05:49:14.277Z,3.33
2019-05-21T05:51:43.551Z,3.10
2019-05-21T05:54:12.809Z,2.80
2019-05-21T05:56:42.043Z,2.80
2019-05-21T05:59:14.232Z,3.10
2019-05-21T06:01:42.422Z,2.70
2019-05-21T06:04:11.763Z,2.73
2019-05-21T06:06:40.971Z,2.90
2019-05-21T06:09:10.233Z,3.07
2019-05-21T06:11:39.460Z,2.90
2019-05-21T06:14:08.791Z,2.97
2019-05-21T06:16:37.948Z,2.53
2019-05-21T06:19:07.185Z,3.00
2019-05-21T06:21:36.444Z,3.00
2019-05-21T06:24:05.775Z,2.90
2019-05-21T06:26:35.033Z,2.60
2019-05-21T06:29:06.085Z,2.80
2019-05-21T06:31:35.358Z,3.10
2019-05-21T06:34:04.620Z,2.80
2019-05-21T06:36:33.883Z,3.97
2019-05-21T06:39:04.744Z,4.00
2019-05-21T06:41:34.016Z,4.40
2019-05-21T06:44:03.383Z,4.47
2019-05-21T06:46:32.632Z,4.73
2019-05-21T06:49:01.863Z,5.10
2019-05-21T06:51:31.113Z,4.93
2019-05-21T06:54:00.471Z,5.80
2019-05-21T06:56:29.647Z,5.70
2019-05-21T06:58:58.823Z,5.80
2019-05-21T07:01:29.514Z,6.00
2019-05-21T07:03:59.202Z,6.87
2019-05-21T07:06:28.385Z,7.07
2019-05-21T07:08:57.609Z,8.07
2019-05-21T07:11:26.792Z,8.77
2019-05-21T07:13:55.946Z,9.70
2019-05-21T07:16:25.198Z,8.80
2019-05-21T07:18:54.436Z,8.70
2019-05-21T07:21:23.714Z,9.10
2019-05-21T07:23:52.874Z,10.07
2019-05-21T07:26:22.057Z,10.57
2019-05-21T07:28:52.838Z,10.70
2019-05-21T07:31:22.322Z,9.87
2019-05-21T07:33:51.518Z,11.87
2019-05-21T07:36:20.790Z,11.47
2019-05-21T07:38:53.780Z,12.97
2019-05-21T07:41:20.935Z,13.67
2019-05-21T07:43:50.110Z,12.93
2019-05-21T07:46:19.435Z,13.37
2019-05-21T07:48:48.664Z,14.13
2019-05-21T07:51:17.842Z,15.50
2019-05-21T07:53:47.075Z,14.67
2019-05-21T07:56:16.251Z,14.60
2019-05-21T07:58:45.488Z,14.70
2019-05-21T08:01:14.671Z,15.43
2019-05-21T08:03:43.891Z,15.37
2019-05-21T08:06:15.026Z,14.87
2019-05-21T08:08:44.085Z,16.00
2019-05-21T08:11:13.390Z,14.90
2019-05-21T08:13:42.543Z,14.77
2019-05-21T08:16:11.737Z,14.73
2019-05-21T08:18:41.078Z,14.53
2019-05-21T08:21:10.367Z,14.80
2019-05-21T08:23:39.522Z,15.70
2019-05-21T08:26:08.799Z,14.47
2019-05-21T08:28:38.030Z,15.47
2019-05-21T08:31:07.294Z,15.00
2019-05-21T08:33:36.532Z,15.30
2019-05-21T08:36:06.112Z,14.37
2019-05-21T08:38:35.519Z,15.53
2019-05-21T08:41:04.847Z,15.07
2019-05-21T08:43:34.139Z,16.00
2019-05-21T08:46:03.607Z,16.50
2019-05-21T08:48:32.799Z,15.57
2019-05-21T08:51:01.962Z,15.97
2019-05-21T08:53:31.157Z,16.57
2019-05-21T08:56:00.471Z,16.93
2019-05-21T08:58:29.911Z,16.63
2019-05-21T09:00:59.155Z,19.03
2019-05-21T09:03:28.408Z,15.33
2019-05-21T09:05:57.571Z,16.53
2019-05-21T09:08:26.904Z,16.40
2019-05-21T09:10:56.136Z,16.57
2019-05-21T09:13:25.405Z,16.03
2019-05-21T09:15:54.637Z,15.67
2019-05-21T09:18:23.824Z,15.90
2019-05-21T09:20:53.337Z,15.13
2019-05-21T09:23:22.586Z,17.47
2019-05-21T09:25:51.870Z,16.73
2019-05-21T09:28:21.168Z,16.47
2019-05-21T09:30:50.495Z,15.27
2019-05-21T09:33:19.756Z,14.67
2019-05-21T09:35:49.068Z,15.77
2019-05-21T09:38:18.369Z,15.17
2019-05-21T09:40:47.629Z,17.17
2019-05-21T09:43:16.882Z,16.70
2019-05-21T09:45:46.156Z,17.67
2019-05-21T09:48:15.490Z,17.87
2019-05-21T09:50:45.066Z,17.30
2019-05-21T09:53:14.406Z,16.87
2019-05-21T09:55:43.742Z,18.47
2019-05-21T09:58:30.192Z,16.90
2019-05-21T10:01:14.017Z,17.97
2019-05-21T10:03:44.816Z,18.80
2019-05-21T10:06:14.218Z,19.97
2019-05-21T10:08:43.474Z,17.67
2019-05-21T10:11:12.627Z,18.00
2019-05-21T10:13:41.958Z,18.00
2019-05-21T10:16:11.121Z,16.90
2019-05-21T10:18:40.532Z,18.23
2019-05-21T10:21:09.736Z,21.30
2019-05-21T10:23:38.947Z,19.00
2019-05-21T10:26:08.190Z,18.90
2019-05-21T10:28:37.456Z,18.07
2019-05-21T10:31:06.641Z,20.70
2019-05-21T10:33:35.826Z,17.10
2019-05-21T10:36:05.750Z,17.83
2019-05-21T10:38:35.056Z,16.47
2019-05-21T10:41:04.315Z,16.67
2019-05-21T10:43:33.538Z,16.03
2019-05-21T10:46:02.842Z,16.63
2019-05-21T10:48:32.121Z,20.67
2019-05-21T10:51:02.259Z,15.47
2019-05-21T10:53:31.486Z,17.60
2019-05-21T10:56:00.713Z,14.27
2019-05-21T10:58:29.883Z,14.93
2019-05-21T11:01:07.971Z,14.97
2019-05-21T11:03:55.071Z,13.67
2019-05-21T11:06:24.341Z,13.67
2019-05-21T11:08:53.575Z,14.07
2019-05-21T11:11:22.906Z,12.80
2019-05-21T11:13:52.177Z,13.43
2019-05-21T11:16:21.519Z,12.57
2019-05-21T11:18:50.752Z,12.63
2019-05-21T11:21:20.037Z,12.87
2019-05-21T11:23:49.376Z,13.00
2019-05-21T11:26:18.679Z,11.50
2019-05-21T11:28:47.846Z,11.00
2019-05-21T11:31:17.144Z,11.77
2019-05-21T11:33:46.455Z,11.33
2019-05-21T11:36:15.889Z,11.60
2019-05-21T11:38:45.411Z,11.03
2019-05-21T11:41:14.672Z,11.37
2019-05-21T11:43:43.936Z,12.93
2019-05-21T11:46:13.338Z,11.77
2019-05-21T11:48:42.698Z,11.70
2019-05-21T11:51:12.756Z,10.90
2019-05-21T11:53:42.296Z,10.00
2019-05-21T11:56:11.468Z,9.57
2019-05-21T11:58:40.628Z,9.30
2019-05-21T12:01:09.901Z,10.87
2019-05-21T12:03:39.485Z,9.60
2019-05-21T12:06:08.757Z,8.77
2019-05-21T12:08:38.065Z,9.40
2019-05-21T12:11:07.249Z,9.40
2019-05-21T12:13:36.465Z,7.80
2019-05-21T12:16:05.639Z,8.03
2019-05-21T12:18:34.792Z,7.23
2019-05-21T12:21:03.984Z,7.27
2019-05-21T12:23:33.241Z,8.20
2019-05-21T12:26:02.539Z,8.37
2019-05-21T12:28:31.802Z,7.60
2019-05-21T12:31:01.031Z,7.33
2019-05-21T12:33:30.386Z,7.77
2019-05-21T12:35:59.594Z,7.63
2019-05-21T12:38:29.652Z,7.23
2019-05-21T12:40:58.892Z,8.23
2019-05-21T12:43:28.144Z,8.53
2019-05-21T12:45:57.588Z,8.13
2019-05-21T12:48:26.891Z,8.07
2019-05-21T12:50:56.056Z,9.73
2019-05-21T12:53:25.309Z,7.53
2019-05-21T12:55:54.538Z,8.17
2019-05-21T12:58:23.748Z,8.73
2019-05-21T13:00:53.130Z,9.07
2019-05-21T13:03:22.380Z,10.00
2019-05-21T13:05:51.793Z,9.13
2019-05-21T13:08:21.136Z,9.37
2019-05-21T13:10:50.416Z,8.90
2019-05-21T13:13:19.875Z,9.17
2019-05-21T13:15:49.112Z,9.03
2019-05-21T13:18:18.439Z,9.37
2019-05-21T13:20:47.710Z,9.17
2019-05-21T13:23:17.272Z,9.23
2019-05-21T13:25:46.550Z,8.20
2019-05-21T13:28:15.898Z,9.27
2019-05-21T13:30:45.128Z,9.60
2019-05-21T13:33:14.433Z,9.07
2019-05-21T13:35:43.675Z,10.03
2019-05-21T13:38:13.689Z,9.73
2019-05-21T13:40:43.679Z,9.03
2019-05-21T13:43:12.868Z,11.73
2019-05-21T13:45:42.165Z,8.37
2019-05-21T13:48:11.457Z,8.97
2019-05-21T13:50:40.647Z,7.90
2019-05-21T13:53:09.840Z,8.97
2019-05-21T13:55:39.176Z,8.40
2019-05-21T13:58:08.520Z,8.80
2019-05-21T14:00:42.319Z,9.10
2019-05-21T14:03:11.771Z,8.57
2019-05-21T14:05:41.003Z,8.50
2019-05-21T14:08:10.204Z,9.07
2019-05-21T14:10:39.527Z,9.67
2019-05-21T14:13:09.196Z,10.47
2019-05-21T14:15:38.475Z,9.03
2019-05-21T14:18:07.742Z,9.27
2019-05-21T14:20:36.990Z,9.97
2019-05-21T14:23:06.178Z,10.13
2019-05-21T14:25:35.435Z,10.27
2019-05-21T14:28:04.704Z,10.70
2019-05-21T14:30:33.968Z,14.27
2019-05-21T14:33:03.176Z,12.00
2019-05-21T14:35:32.432Z,10.70
2019-05-21T14:38:01.612Z,10.13
2019-05-21T14:40:32.666Z,11.57
2019-05-21T14:43:02.247Z,10.53
2019-05-21T14:45:34.224Z,10.43
2019-05-21T14:48:02.883Z,10.57
2019-05-21T14:50:32.074Z,10.00
2019-05-21T14:53:01.408Z,11.00
2019-05-21T14:55:30.662Z,10.47
2019-05-21T14:57:59.897Z,10.97
2019-05-21T15:00:32.605Z,10.23
2019-05-21T15:03:01.858Z,11.50
2019-05-21T15:05:31.031Z,9.63
2019-05-21T15:08:00.259Z,9.87
2019-05-21T15:10:29.689Z,9.23
2019-05-21T15:12:58.916Z,9.83
2019-05-21T15:15:28.090Z,9.73
2019-05-21T15:17:57.290Z,11.73
2019-05-21T15:20:44.725Z,10.93
2019-05-21T15:23:14.136Z,10.80
2019-05-21T15:25:43.330Z,12.43
2019-05-21T15:28:12.560Z,12.17
2019-05-21T15:30:41.819Z,12.10
2019-05-21T15:33:11.016Z,12.53
2019-05-21T15:35:40.293Z,12.37
2019-05-21T15:38:09.539Z,12.10
2019-05-21T15:40:38.728Z,12.83
2019-05-21T15:43:07.992Z,13.83
2019-05-21T15:45:37.182Z,13.27
2019-05-21T15:48:06.339Z,13.87
2019-05-21T15:50:35.533Z,13.37
2019-05-21T15:53:04.750Z,13.93
2019-05-21T15:55:34.081Z,13.70
2019-05-21T15:58:03.382Z,12.80
2019-05-21T16:00:32.759Z,12.50
2019-05-21T16:03:01.971Z,12.93
2019-05-21T16:05:31.333Z,13.13
2019-05-21T16:08:00.644Z,12.80
2019-05-21T16:10:29.905Z,13.47
2019-05-21T16:12:59.126Z,14.50
2019-05-21T16:15:28.587Z,14.53
2019-05-21T16:17:57.885Z,15.37
2019-05-21T16:20:27.319Z,13.90
2019-05-21T16:22:56.639Z,14.70
2019-05-21T16:25:25.871Z,16.23
2019-05-21T16:27:55.117Z,15.37
2019-05-21T16:30:24.567Z,15.80
2019-05-21T16:32:53.767Z,15.90
2019-05-21T16:35:23.138Z,17.57
2019-05-21T16:37:52.620Z,16.23
2019-05-21T16:40:21.780Z,16.83
2019-05-21T16:42:51.043Z,16.80
2019-05-21T16:45:20.480Z,15.97
2019-05-21T16:47:49.743Z,16.43
2019-05-21T16:50:19.251Z,16.60
2019-05-21T16:52:48.456Z,17.13
2019-05-21T16:55:17.619Z,17.17
2019-05-21T16:57:46.885Z,17.47
2019-05-21T17:00:17.896Z,17.73
2019-05-21T17:02:47.152Z,17.70
2019-05-21T17:05:16.439Z,16.80
2019-05-21T17:07:45.640Z,18.17
2019-05-21T17:10:16.600Z,18.23
2019-05-21T17:12:45.859Z,18.87
2019-05-21T17:15:15.127Z,19.13
2019-05-21T17:17:44.404Z,18.57
2019-05-21T17:20:14.038Z,18.23
2019-05-21T17:22:43.265Z,18.90
2019-05-21T17:25:12.719Z,18.60
2019-05-21T17:27:42.034Z,18.60
2019-05-21T17:30:11.908Z,20.67
2019-05-21T17:32:41.317Z,19.17
2019-05-21T17:35:11.947Z,19.93
2019-05-21T17:37:41.131Z,18.70
2019-05-21T17:40:11.665Z,19.63
2019-05-21T17:42:40.958Z,18.80
2019-05-21T17:45:10.778Z,20.13
2019-05-21T17:47:40.147Z,20.07
2019-05-21T17:50:10.135Z,18.73
2019-05-21T17:52:39.328Z,20.43
2019-05-21T17:55:09.364Z,22.13
2019-05-21T17:57:39.257Z,21.23
2019-05-21T18:00:10.014Z,20.83
2019-05-21T18:02:40.127Z,20.23
2019-05-21T18:05:09.372Z,19.90
2019-05-21T18:07:39.443Z,20.63
2019-05-21T18:10:09.440Z,20.50
2019-05-21T18:12:38.879Z,21.00
2019-05-21T18:15:10.627Z,21.47
2019-05-21T18:17:40.214Z,21.10
2019-05-21T18:20:12.184Z,19.60
2019-05-21T18:22:43.723Z,20.90
2019-05-21T18:25:13.448Z,23.23
2019-05-21T18:27:43.084Z,21.57
2019-05-21T18:30:13.904Z,21.57
2019-05-21T18:32:43.633Z,22.37
2019-05-21T18:35:13.102Z,23.23
2019-05-21T18:37:43.046Z,22.53
2019-05-21T18:40:13.528Z,22.00
2019-05-21T18:42:42.845Z,21.93
2019-05-21T18:45:12.943Z,22.20
2019-05-21T18:47:42.227Z,21.90
2019-05-21T18:50:12.287Z,22.60
2019-05-21T18:52:41.449Z,22.87
2019-05-21T18:55:11.183Z,24.70
2019-05-21T18:57:40.619Z,22.07
2019-05-21T19:00:11.544Z,22.77
2019-05-21T19:02:41.252Z,22.80
2019-05-21T19:05:10.651Z,22.63
2019-05-21T19:07:39.827Z,26.43
2019-05-21T19:10:10.241Z,29.53
2019-05-21T19:12:39.635Z,43.40
2019-05-21T19:15:09.829Z,27.33
2019-05-21T19:17:39.244Z,26.70
2019-05-21T19:20:09.967Z,28.40
2019-05-21T19:22:39.147Z,27.90
2019-05-21T19:25:08.502Z,31.50
2019-05-21T19:27:37.865Z,29.80
2019-05-21T19:30:08.936Z,29.10
2019-05-21T19:32:38.199Z,28.43
2019-05-21T19:35:07.872Z,32.10
2019-05-21T19:37:37.026Z,30.70
2019-05-21T19:40:07.006Z,27.97
2019-05-21T19:42:36.363Z,31.60
2019-05-21T19:45:06.783Z,29.47
2019-05-21T19:47:35.980Z,27.37
2019-05-21T19:50:05.743Z,27.50
2019-05-21T19:52:34.987Z,25.27
2019-05-21T19:55:04.843Z,24.60
2019-05-21T19:57:34.485Z,25.77
2019-05-21T20:00:03.798Z,27.37
2019-05-21T20:02:33.032Z,24.63
2019-05-21T20:05:02.421Z,22.43
2019-05-21T20:07:31.914Z,25.97
2019-05-21T20:10:01.540Z,26.20
2019-05-21T20:12:31.329Z,28.30
2019-05-21T20:15:00.748Z,27.67
2019-05-21T20:17:30.994Z,30.23
2019-05-21T20:20:00.339Z,28.77
2019-05-21T20:22:30.382Z,28.60
2019-05-21T20:24:59.659Z,31.07
2019-05-21T20:27:30.354Z,29.97
2019-05-21T20:30:12.353Z,29.90
2019-05-21T20:32:31.373Z,29.87
2019-05-21T20:35:00.598Z,31.70
2019-05-21T20:37:31.843Z,31.17
2019-05-21T20:40:01.378Z,31.20
2019-05-21T20:42:30.909Z,29.37
2019-05-21T20:45:00.608Z,30.83
2019-05-21T20:47:29.923Z,27.97
2019-05-21T20:50:00.074Z,37.47
2019-05-21T20:52:29.821Z,34.57
2019-05-21T20:55:00.531Z,33.27
2019-05-21T20:57:30.791Z,32.40
2019-05-21T21:00:00.241Z,34.00
2019-05-21T21:02:30.409Z,33.43
2019-05-21T21:05:00.135Z,34.17
2019-05-21T21:07:30.279Z,32.47
2019-05-21T21:09:59.522Z,34.07
2019-05-21T21:12:29.008Z,33.53
2019-05-21T21:14:58.848Z,33.67
2019-05-21T21:17:28.394Z,34.97
2019-05-21T21:19:57.546Z,34.70
2019-05-21T21:22:26.743Z,32.30
2019-05-21T21:24:56.403Z,33.33
2019-05-21T21:27:26.162Z,33.23
2019-05-21T21:29:55.327Z,35.87
2019-05-21T21:32:24.587Z,33.47
2019-05-21T21:34:53.963Z,35.50
2019-05-21T21:37:23.180Z,39.07
2019-05-21T21:39:52.686Z,37.30
2019-05-21T21:42:22.043Z,34.67
2019-05-21T21:44:51.212Z,34.17
2019-05-21T21:47:21.380Z,35.80
2019-05-21T21:49:51.812Z,31.83
2019-05-21T21:52:21.669Z,31.97
2019-05-21T21:54:51.091Z,34.30
2019-05-21T21:57:20.288Z,32.47
2019-05-21T21:59:49.839Z,28.67
2019-05-21T22:02:28.460Z,26.73
2019-05-21T22:04:58.659Z,26.03
2019-05-21T22:07:28.358Z,27.50
2019-05-21T22:09:58.432Z,25.47
2019-05-21T22:12:27.805Z,23.73
2019-05-21T22:15:03.884Z,26.63
2019-05-21T22:17:33.064Z,27.53
2019-05-21T22:20:02.639Z,28.13
2019-05-21T22:22:32.068Z,26.13
2019-05-21T22:25:02.148Z,24.20
2019-05-21T22:27:31.912Z,25.77
2019-05-21T22:30:01.174Z,26.10
2019-05-21T22:32:30.511Z,23.83
2019-05-21T22:34:59.712Z,28.30
2019-05-21T22:37:29.842Z,26.40
2019-05-21T22:39:59.309Z,24.97
2019-05-21T22:42:29.416Z,24.87
2019-05-21T22:45:07.825Z,26.83
2019-05-21T22:47:30.040Z,25.20
2019-05-21T22:49:59.233Z,24.87
2019-05-21T22:52:28.678Z,24.57
2019-05-21T22:54:57.874Z,25.53
2019-05-21T22:57:27.155Z,23.13
2019-05-21T22:59:56.348Z,25.50
2019-05-21T23:02:29.576Z,25.90
2019-05-21T23:04:59.437Z,25.60
2019-05-21T23:07:28.663Z,25.40
2019-05-21T23:09:58.677Z,25.53
2019-05-21T23:12:28.519Z,23.00
2019-05-21T23:14:57.975Z,25.27
2019-05-21T23:17:27.208Z,25.67
2019-05-21T23:19:57.122Z,27.67
2019-05-21T23:22:27.458Z,28.47
2019-05-21T23:24:56.667Z,25.47
2019-05-21T23:27:26.341Z,25.93
2019-05-21T23:29:55.839Z,24.03
2019-05-21T23:32:25.240Z,25.00
2019-05-21T23:34:54.815Z,24.40
2019-05-21T23:37:25.277Z,23.77
2019-05-21T23:39:55.672Z,24.53
2019-05-21T23:42:30.178Z,26.77
2019-05-21T23:44:57.002Z,24.27
2019-05-21T23:47:26.971Z,25.30
2019-05-21T23:49:56.264Z,22.47
2019-05-21T23:52:25.995Z,23.67
2019-05-21T23:54:55.299Z,25.60
2019-05-21T23:57:32.252Z,22.60
